aviador You're here:

OEJN Decoded Metar

JEDDAH in SAUDI ARABIA
Report Time2017-10-18 20:00:00
UTC Time2017-10-18 20:26:58
Flight Rules vfr VFR
Wind360° at 06 kt
W.Decomp.*RWY 34: 5.7 kt HW 1.8 kt RCW
Visibility9999 m
Phenomena:N/A
Clouds:N/A
Expected CloudBase > 2,000 ft AGL from Temp-Dew spread
CeilingNone
Temp28°C (ISA +13)
Dew Point23°C (74% RH)
Heat Index31.2°C
QNH1009 hPa
Density Alt2,060 ft
Elevation49 ft
Report Wrong Elevation
Raw Report
METAR OEJN 182000Z 36006KT CAVOK 28/23 Q1009 NOSIG=

Extra information for OEJN:More info

Metar Taf Metar & Taf Last 4 Metars F.Rules Stats Wind Profile Meteogram Temp Stats Airport Information Weather charts Add Link Nearby VenuesMetar ALERT Operation Metar Decoded Social comments